createdAt,value
2023-06-15T00:02:20.078Z,50.04
2023-06-15T00:04:47.915Z,50.05
2023-06-15T00:07:15.692Z,50.24
2023-06-15T00:09:44.149Z,49.79
2023-06-15T00:12:11.795Z,49.99
2023-06-15T00:14:39.483Z,50.31
2023-06-15T00:17:09.545Z,50.34
2023-06-15T00:19:37.495Z,50.10
2023-06-15T00:22:05.904Z,50.54
2023-06-15T00:24:33.714Z,50.60
2023-06-15T00:27:01.420Z,50.41
2023-06-15T00:29:29.039Z,51.04
2023-06-15T00:31:57.151Z,50.87
2023-06-15T00:34:25.171Z,50.73
2023-06-15T00:36:52.755Z,50.63
2023-06-15T00:39:20.769Z,50.48
2023-06-15T00:41:48.613Z,50.89
2023-06-15T00:44:16.183Z,50.50
2023-06-15T00:46:43.813Z,50.63
2023-06-15T00:49:11.458Z,50.47
2023-06-15T00:51:39.981Z,50.86
2023-06-15T00:54:08.649Z,51.10
2023-06-15T00:56:36.266Z,51.01
2023-06-15T00:59:04.302Z,51.07
2023-06-15T01:01:31.986Z,51.10
2023-06-15T01:04:01.510Z,51.13
2023-06-15T01:06:32.507Z,51.34
2023-06-15T01:09:00.076Z,51.15
2023-06-15T01:11:29.716Z,51.42
2023-06-15T01:13:58.845Z,51.30
2023-06-15T01:16:26.991Z,51.59
2023-06-15T01:18:57.637Z,51.40
2023-06-15T01:21:25.344Z,52.05
2023-06-15T01:23:53.007Z,51.86
2023-06-15T01:26:22.114Z,51.91
2023-06-15T01:28:50.811Z,52.14
2023-06-15T01:31:18.661Z,52.31
2023-06-15T01:33:46.623Z,52.18
2023-06-15T01:36:14.591Z,51.81
2023-06-15T01:38:42.656Z,52.16
2023-06-15T01:41:10.277Z,52.80
2023-06-15T01:43:37.915Z,52.81
2023-06-15T01:46:05.651Z,52.58
2023-06-15T01:48:33.694Z,53.02
2023-06-15T01:51:01.453Z,52.53
2023-06-15T01:53:29.041Z,52.85
2023-06-15T01:55:56.821Z,52.93
2023-06-15T01:58:24.405Z,53.20
2023-06-15T02:00:52.816Z,52.58
2023-06-15T02:03:20.543Z,52.95
2023-06-15T02:05:48.202Z,52.93
2023-06-15T02:08:15.861Z,53.24
2023-06-15T02:10:43.532Z,52.92
2023-06-15T02:13:11.567Z,52.85
2023-06-15T02:15:40.152Z,53.31
2023-06-15T02:18:13.732Z,52.96
2023-06-15T02:20:41.682Z,53.43
2023-06-15T02:23:09.476Z,53.17
2023-06-15T02:25:37.502Z,53.26
2023-06-15T02:28:05.070Z,53.03
2023-06-15T02:30:32.669Z,53.23
2023-06-15T02:33:01.910Z,52.63
2023-06-15T02:35:29.726Z,53.27
2023-06-15T02:37:57.752Z,53.35
2023-06-15T02:40:25.431Z,53.44
2023-06-15T02:42:53.044Z,52.74
2023-06-15T02:45:22.223Z,53.51
2023-06-15T02:47:49.908Z,53.22
2023-06-15T02:50:19.421Z,53.21
2023-06-15T02:52:48.026Z,53.59
2023-06-15T02:55:15.956Z,53.85
2023-06-15T02:57:43.870Z,53.80
2023-06-15T03:00:15.163Z,53.80
2023-06-15T03:02:44.748Z,53.94
2023-06-15T03:05:12.476Z,53.61
2023-06-15T03:07:41.938Z,53.87
2023-06-15T03:10:09.779Z,54.39
2023-06-15T03:12:37.407Z,54.34
2023-06-15T03:15:05.431Z,54.22
2023-06-15T03:17:34.113Z,54.52
2023-06-15T03:20:01.902Z,54.49
2023-06-15T03:22:29.624Z,54.33
2023-06-15T03:24:57.268Z,54.24
2023-06-15T03:27:24.942Z,54.15
2023-06-15T03:29:53.030Z,54.12
2023-06-15T03:32:21.349Z,54.42
2023-06-15T03:34:49.322Z,54.38
2023-06-15T03:37:16.934Z,54.53
2023-06-15T03:39:44.937Z,54.55
2023-06-15T03:42:12.559Z,54.55
2023-06-15T03:44:40.164Z,54.19
2023-06-15T03:47:07.966Z,54.16
2023-06-15T03:49:35.840Z,54.11
2023-06-15T03:52:03.830Z,54.48
2023-06-15T03:54:31.504Z,54.53
2023-06-15T03:56:59.085Z,54.41
2023-06-15T03:59:26.876Z,54.32
2023-06-15T04:01:54.516Z,54.59
2023-06-15T04:04:22.556Z,54.56
2023-06-15T04:06:54.313Z,54.20
2023-06-15T04:09:22.444Z,54.27
2023-06-15T04:11:50.035Z,54.45
2023-06-15T04:14:19.381Z,53.96
2023-06-15T04:16:47.456Z,53.84
2023-06-15T04:19:15.418Z,53.79
2023-06-15T04:21:43.030Z,53.83
2023-06-15T04:24:10.914Z,53.67
2023-06-15T04:26:38.570Z,53.15
2023-06-15T04:29:06.577Z,53.22
2023-06-15T04:31:35.170Z,53.34
2023-06-15T04:34:06.016Z,53.32
2023-06-15T04:36:35.972Z,53.29
2023-06-15T04:39:04.029Z,52.39
2023-06-15T04:41:32.530Z,52.48
2023-06-15T04:44:00.236Z,52.50
2023-06-15T04:46:29.288Z,51.85
2023-06-15T04:48:57.676Z,51.98
2023-06-15T04:51:25.349Z,51.81
2023-06-15T04:53:53.340Z,51.91
2023-06-15T04:56:22.525Z,51.80
2023-06-15T04:58:50.312Z,51.78
2023-06-15T05:01:17.973Z,51.85
2023-06-15T05:03:45.754Z,51.77
2023-06-15T05:06:14.103Z,51.77
2023-06-15T05:08:41.781Z,51.68
2023-06-15T05:11:09.411Z,51.88
2023-06-15T05:13:37.169Z,51.47
2023-06-15T05:16:04.830Z,51.08
2023-06-15T05:18:33.405Z,50.95
2023-06-15T05:21:01.235Z,50.28
2023-06-15T05:23:30.169Z,50.42
2023-06-15T05:25:58.104Z,49.97
2023-06-15T05:28:28.241Z,49.40
2023-06-15T05:30:56.486Z,49.68
2023-06-15T05:33:24.239Z,49.45
2023-06-15T05:35:52.076Z,49.40
2023-06-15T05:38:21.621Z,49.06
2023-06-15T05:40:49.838Z,48.67
2023-06-15T05:43:17.754Z,48.89
2023-06-15T05:48:13.427Z,48.81
2023-06-15T05:50:41.335Z,48.39
2023-06-15T05:53:09.010Z,48.74
2023-06-15T05:55:36.908Z,48.59
2023-06-15T05:58:04.712Z,48.06
2023-06-15T06:00:33.074Z,47.98
2023-06-15T06:03:02.840Z,48.29
2023-06-15T06:05:31.387Z,48.39
2023-06-15T06:07:59.427Z,48.46
2023-06-15T06:10:27.145Z,48.35
2023-06-15T06:12:55.078Z,48.51
2023-06-15T06:15:23.381Z,48.45
2023-06-15T06:18:07.928Z,48.16
2023-06-15T06:20:38.210Z,48.38
2023-06-15T06:23:06.051Z,48.08
2023-06-15T06:25:34.050Z,47.71
2023-06-15T06:28:01.976Z,47.92
2023-06-15T06:30:29.801Z,47.65
2023-06-15T06:33:00.611Z,47.68
2023-06-15T06:35:29.533Z,47.87
2023-06-15T06:37:57.686Z,47.24
2023-06-15T06:40:27.081Z,47.52
2023-06-15T06:42:55.032Z,46.85
2023-06-15T06:45:23.615Z,47.50
2023-06-15T06:47:51.622Z,47.37
2023-06-15T06:50:19.858Z,46.65
2023-06-15T06:52:47.664Z,47.08
2023-06-15T06:55:15.881Z,47.18
2023-06-15T06:57:44.384Z,47.21
2023-06-15T07:00:12.313Z,47.05
2023-06-15T07:02:40.434Z,47.00
2023-06-15T07:05:08.453Z,47.02
2023-06-15T07:07:36.579Z,47.29
2023-06-15T07:10:05.044Z,47.42
2023-06-15T07:12:32.956Z,47.18
2023-06-15T07:15:00.711Z,46.58
2023-06-15T07:17:28.523Z,46.73
2023-06-15T07:19:56.527Z,46.65
2023-06-15T07:22:25.589Z,46.54
2023-06-15T07:24:53.487Z,46.42
2023-06-15T07:27:21.911Z,46.33
2023-06-15T07:29:50.327Z,46.18
2023-06-15T07:32:18.123Z,46.12
2023-06-15T07:34:46.641Z,45.77
2023-06-15T07:37:14.590Z,45.84
2023-06-15T07:39:42.875Z,46.15
2023-06-15T07:42:10.868Z,45.40
2023-06-15T07:44:38.877Z,45.59
2023-06-15T07:47:08.070Z,45.32
2023-06-15T07:49:45.705Z,45.15
2023-06-15T07:52:14.744Z,44.98
2023-06-15T07:54:43.427Z,45.07
2023-06-15T07:57:11.877Z,44.63
2023-06-15T07:59:39.771Z,45.09
2023-06-15T08:02:07.818Z,44.43
2023-06-15T08:04:35.868Z,44.13
2023-06-15T08:07:03.694Z,44.41
2023-06-15T08:09:32.183Z,43.95
2023-06-15T08:12:01.544Z,43.81
2023-06-15T08:14:29.587Z,44.00
2023-06-15T08:16:58.003Z,43.56
2023-06-15T08:19:26.657Z,43.55
2023-06-15T08:21:55.149Z,43.30
2023-06-15T08:24:23.353Z,43.43
2023-06-15T08:26:51.370Z,42.57
2023-06-15T08:29:23.990Z,42.60
2023-06-15T08:31:53.010Z,42.45
2023-06-15T08:34:21.286Z,42.01
2023-06-15T08:36:50.730Z,42.42
2023-06-15T08:39:19.118Z,42.06
2023-06-15T08:41:47.076Z,41.49
2023-06-15T08:44:15.061Z,41.73
2023-06-15T08:46:44.217Z,41.04
2023-06-15T08:49:12.180Z,41.44
2023-06-15T08:51:39.936Z,41.08
2023-06-15T08:54:09.951Z,40.85
2023-06-15T08:56:39.739Z,40.65
2023-06-15T08:59:08.456Z,40.79
2023-06-15T09:01:41.181Z,40.20
2023-06-15T09:04:09.151Z,40.02
2023-06-15T09:06:37.255Z,40.37
2023-06-15T09:09:05.588Z,39.58
2023-06-15T09:11:34.384Z,39.88
2023-06-15T09:14:02.256Z,39.73
2023-06-15T09:16:30.534Z,39.13
2023-06-15T09:18:58.723Z,39.44
2023-06-15T09:21:27.795Z,38.98
2023-06-15T09:23:56.187Z,39.06
2023-06-15T09:26:24.578Z,38.58
2023-06-15T09:28:53.786Z,38.86
2023-06-15T09:31:21.860Z,38.50
2023-06-15T09:33:51.984Z,38.39
2023-06-15T09:36:20.915Z,38.33
2023-06-15T09:38:49.953Z,38.17
2023-06-15T09:41:18.184Z,38.54
2023-06-15T09:43:46.168Z,37.89
2023-06-15T09:46:14.289Z,38.50
2023-06-15T09:48:42.469Z,37.96
2023-06-15T09:51:10.379Z,37.48
2023-06-15T09:53:38.940Z,38.31
2023-06-15T09:56:17.208Z,37.97
2023-06-15T09:58:55.362Z,37.93
2023-06-15T10:01:23.511Z,37.66
2023-06-15T10:03:53.953Z,36.92
2023-06-15T10:06:22.291Z,36.42
2023-06-15T10:08:53.061Z,35.74
2023-06-15T10:11:21.051Z,35.36
2023-06-15T10:13:49.101Z,34.65
2023-06-15T10:16:18.085Z,33.97
2023-06-15T10:18:45.926Z,34.11
2023-06-15T10:21:14.014Z,33.90
2023-06-15T10:23:45.037Z,32.90
2023-06-15T10:26:12.968Z,32.80
2023-06-15T10:28:43.591Z,32.41
2023-06-15T10:31:11.413Z,32.86
2023-06-15T10:33:39.308Z,32.63
2023-06-15T10:36:07.309Z,31.90
2023-06-15T10:38:37.785Z,31.50
2023-06-15T10:41:06.483Z,30.46
2023-06-15T10:43:34.558Z,30.66
2023-06-15T10:46:03.848Z,29.99
2023-06-15T10:48:31.873Z,29.94
2023-06-15T10:50:59.873Z,28.66
2023-06-15T10:53:27.963Z,29.33
2023-06-15T10:55:56.789Z,29.07
2023-06-15T10:58:25.958Z,29.56
2023-06-15T11:00:55.953Z,29.48
2023-06-15T11:03:24.045Z,30.58
2023-06-15T11:05:52.201Z,31.35
2023-06-15T11:08:20.165Z,32.56
2023-06-15T11:10:48.137Z,33.25
2023-06-15T11:13:16.545Z,32.63
2023-06-15T11:15:44.503Z,32.38
2023-06-15T11:18:13.090Z,32.81
2023-06-15T11:20:41.320Z,33.59
2023-06-15T11:23:11.441Z,34.02
2023-06-15T11:25:40.125Z,34.98
2023-06-15T11:28:11.496Z,35.82
2023-06-15T11:30:41.181Z,36.30
2023-06-15T11:33:09.411Z,36.85
2023-06-15T11:35:37.453Z,36.77
2023-06-15T11:38:05.732Z,37.30
2023-06-15T11:40:33.715Z,37.62
2023-06-15T11:43:02.025Z,37.64
2023-06-15T11:45:29.981Z,37.53
2023-06-15T11:47:57.946Z,37.16
2023-06-15T11:50:26.191Z,37.30
2023-06-15T11:52:54.081Z,37.05
2023-06-15T11:55:22.093Z,36.88
2023-06-15T11:57:49.958Z,36.64
2023-06-15T12:00:18.163Z,36.75
2023-06-15T12:02:46.884Z,36.57
2023-06-15T12:05:15.270Z,36.39
2023-06-15T12:07:44.108Z,36.24
2023-06-15T12:10:13.352Z,35.50
2023-06-15T12:12:41.390Z,35.16
2023-06-15T12:15:09.522Z,35.08
2023-06-15T12:17:37.713Z,35.69
2023-06-15T12:20:10.099Z,35.59
2023-06-15T12:22:38.411Z,35.15
2023-06-15T12:25:06.456Z,34.42
2023-06-15T12:27:35.609Z,33.73
2023-06-15T12:30:05.102Z,32.59
2023-06-15T12:32:33.582Z,32.38
2023-06-15T12:35:01.575Z,32.14
2023-06-15T12:37:38.943Z,31.22
2023-06-15T12:40:14.835Z,30.59
2023-06-15T12:42:43.114Z,30.80
2023-06-15T12:45:11.372Z,31.24
2023-06-15T12:47:39.797Z,31.17
2023-06-15T12:50:08.067Z,31.11
2023-06-15T12:52:37.803Z,29.99
2023-06-15T12:55:06.206Z,28.90
2023-06-15T12:57:34.219Z,28.52
2023-06-15T13:00:02.205Z,27.74
2023-06-15T13:02:30.345Z,26.71
2023-06-15T13:05:02.656Z,26.82
2023-06-15T13:07:32.576Z,26.76
2023-06-15T13:10:00.755Z,26.63
2023-06-15T13:12:28.650Z,26.33
2023-06-15T13:14:56.676Z,26.14
2023-06-15T13:17:25.160Z,25.97
2023-06-15T13:19:53.473Z,26.20
2023-06-15T13:22:21.328Z,25.97
2023-06-15T13:24:49.393Z,25.74
2023-06-15T13:27:19.100Z,25.77
2023-06-15T13:29:49.628Z,25.70
2023-06-15T13:32:18.256Z,25.84
2023-06-15T13:34:46.273Z,25.97
2023-06-15T13:37:17.563Z,25.95
2023-06-15T13:39:45.918Z,25.58
2023-06-15T13:42:14.992Z,25.81
2023-06-15T13:44:43.193Z,25.75
2023-06-15T13:47:11.083Z,25.59
2023-06-15T13:49:39.070Z,25.16
2023-06-15T13:52:06.873Z,25.34
2023-06-15T13:54:35.022Z,25.10
2023-06-15T13:57:03.291Z,25.54
2023-06-15T13:59:32.027Z,25.19
2023-06-15T14:02:00.148Z,25.39
2023-06-15T14:04:31.169Z,25.37
2023-06-15T14:07:00.649Z,25.53
2023-06-15T14:09:28.740Z,25.57
2023-06-15T14:11:59.176Z,25.46
2023-06-15T14:14:27.139Z,26.31
2023-06-15T14:16:55.215Z,26.13
2023-06-15T14:19:23.611Z,25.71
2023-06-15T14:21:52.044Z,25.57
2023-06-15T14:24:20.724Z,25.46
2023-06-15T14:26:48.709Z,24.82
2023-06-15T14:29:17.047Z,24.88
2023-06-15T14:31:47.814Z,24.41
2023-06-15T14:34:17.899Z,23.60
2023-06-15T14:36:46.439Z,23.95
2023-06-15T14:39:14.586Z,23.46
2023-06-15T14:41:42.388Z,23.62
2023-06-15T14:44:10.801Z,24.67
2023-06-15T14:46:41.042Z,24.37
2023-06-15T14:49:08.930Z,24.18
2023-06-15T14:51:37.312Z,24.27
2023-06-15T14:54:05.557Z,23.97
2023-06-15T14:56:34.446Z,23.37
2023-06-15T14:59:02.477Z,23.03
2023-06-15T15:01:30.632Z,22.84
2023-06-15T15:03:58.613Z,22.48
2023-06-15T15:06:26.545Z,22.57
2023-06-15T15:08:54.600Z,22.04
2023-06-15T15:11:22.899Z,22.46
2023-06-15T15:13:50.828Z,22.22
2023-06-15T15:16:21.595Z,23.03
2023-06-15T15:18:52.380Z,24.71
2023-06-15T15:21:20.831Z,26.54
2023-06-15T15:23:48.970Z,27.39
2023-06-15T15:26:17.009Z,28.12
2023-06-15T15:28:44.855Z,27.70
2023-06-15T15:31:12.950Z,27.57
2023-06-15T15:33:41.223Z,28.05
2023-06-15T15:36:09.360Z,27.31
2023-06-15T15:38:38.200Z,26.82
2023-06-15T15:41:06.913Z,26.01
2023-06-15T15:43:34.870Z,25.51
2023-06-15T15:46:03.595Z,24.56
2023-06-15T15:48:31.902Z,24.05
2023-06-15T15:50:59.907Z,24.41
2023-06-15T15:53:27.944Z,24.45
2023-06-15T15:55:56.002Z,23.67
2023-06-15T15:58:23.900Z,23.46
2023-06-15T16:00:52.542Z,23.63
2023-06-15T16:03:20.884Z,23.14
2023-06-15T16:05:48.881Z,22.66
2023-06-15T16:08:16.987Z,23.43
2023-06-15T16:10:45.834Z,23.18
2023-06-15T16:13:14.158Z,23.26
2023-06-15T16:15:42.319Z,23.74
2023-06-15T16:18:11.264Z,23.66
2023-06-15T16:20:39.291Z,23.21
2023-06-15T16:23:07.872Z,23.51
2023-06-15T16:25:37.192Z,24.74
2023-06-15T16:28:05.266Z,25.61
2023-06-15T16:30:33.202Z,26.20
2023-06-15T16:33:01.243Z,27.60
2023-06-15T16:35:29.847Z,28.01
2023-06-15T16:37:57.848Z,28.37
2023-06-15T16:40:25.813Z,29.01
2023-06-15T16:42:53.742Z,29.12
2023-06-15T16:45:21.758Z,29.27
2023-06-15T16:47:50.498Z,29.36
2023-06-15T16:50:19.189Z,29.54
2023-06-15T16:52:48.323Z,29.12
2023-06-15T16:55:16.561Z,28.72
2023-06-15T16:57:44.498Z,29.39
2023-06-15T17:00:12.741Z,29.49
2023-06-15T17:02:41.602Z,29.96
2023-06-15T17:05:09.639Z,30.36
2023-06-15T17:07:37.646Z,30.55
2023-06-15T17:10:06.137Z,31.43
2023-06-15T17:12:37.138Z,31.58
2023-06-15T17:15:05.507Z,31.75
2023-06-15T17:17:33.526Z,31.81
2023-06-15T17:20:01.507Z,31.60
2023-06-15T17:22:29.463Z,32.28
2023-06-15T17:24:59.462Z,31.95
2023-06-15T17:27:27.412Z,32.53
2023-06-15T17:29:55.661Z,32.41
2023-06-15T17:32:23.949Z,32.57
2023-06-15T17:34:53.741Z,32.73
2023-06-15T17:37:22.619Z,32.89
2023-06-15T17:39:51.403Z,32.26
2023-06-15T17:42:19.355Z,32.99
2023-06-15T17:44:47.233Z,32.76
2023-06-15T17:47:15.242Z,32.93
2023-06-15T17:49:43.233Z,32.79
2023-06-15T17:52:11.771Z,32.72
2023-06-15T17:54:40.097Z,32.79
2023-06-15T17:57:08.040Z,33.35
2023-06-15T17:59:35.977Z,33.17
2023-06-15T18:02:05.976Z,32.89
2023-06-15T18:04:33.999Z,33.13
2023-06-15T18:07:05.201Z,33.35
2023-06-15T18:09:33.143Z,32.87
2023-06-15T18:12:01.055Z,33.35
2023-06-15T18:14:29.258Z,33.59
2023-06-15T18:16:58.560Z,33.44
2023-06-15T18:19:26.466Z,33.04
2023-06-15T18:21:54.399Z,33.65
2023-06-15T18:24:22.712Z,33.73
2023-06-15T18:26:51.190Z,33.68
2023-06-15T18:29:19.575Z,33.87
2023-06-15T18:31:47.494Z,34.11
2023-06-15T18:34:16.509Z,33.80
2023-06-15T18:36:44.497Z,33.83
2023-06-15T18:39:13.222Z,34.41
2023-06-15T18:41:41.138Z,33.98
2023-06-15T18:44:08.985Z,34.57
2023-06-15T18:46:37.866Z,34.55
2023-06-15T18:49:05.793Z,34.40
2023-06-15T18:51:34.176Z,34.41
2023-06-15T18:54:02.056Z,34.63
2023-06-15T18:56:30.022Z,34.91
2023-06-15T18:58:58.155Z,34.48
2023-06-15T19:01:26.589Z,34.65
2023-06-15T19:03:55.075Z,34.92
2023-06-15T19:06:23.028Z,34.86
2023-06-15T19:08:50.996Z,34.99
2023-06-15T19:11:18.862Z,35.82
2023-06-15T19:13:47.278Z,35.53
2023-06-15T19:16:15.664Z,35.57
2023-06-15T19:18:44.097Z,35.89
2023-06-15T19:21:12.196Z,35.58
2023-06-15T19:23:40.129Z,35.80
2023-06-15T19:26:08.283Z,36.00
2023-06-15T19:28:38.318Z,35.97
2023-06-15T19:31:06.412Z,36.43
2023-06-15T19:33:34.283Z,36.66
2023-06-15T19:36:02.198Z,36.86
2023-06-15T19:38:30.160Z,36.42
2023-06-15T19:40:58.433Z,36.96
2023-06-15T19:43:28.477Z,36.63
2023-06-15T19:46:00.867Z,36.84
2023-06-15T19:48:28.872Z,36.75
2023-06-15T19:50:58.939Z,36.80
2023-06-15T19:53:28.355Z,37.67
2023-06-15T19:55:56.180Z,37.60
2023-06-15T19:58:24.156Z,37.88
2023-06-15T20:00:54.814Z,37.80
2023-06-15T20:03:22.858Z,38.24
2023-06-15T20:05:51.075Z,38.35
2023-06-15T20:08:19.005Z,37.64
2023-06-15T20:10:46.763Z,38.40
2023-06-15T20:13:14.698Z,38.36
2023-06-15T20:15:43.208Z,38.43
2023-06-15T20:18:11.076Z,38.52
2023-06-15T20:20:39.114Z,38.82
2023-06-15T20:23:08.369Z,38.82
2023-06-15T20:25:36.884Z,38.92
2023-06-15T20:28:05.739Z,39.12
2023-06-15T20:30:33.963Z,39.05
2023-06-15T20:33:01.903Z,39.66
2023-06-15T20:35:30.675Z,39.13
2023-06-15T20:37:58.620Z,39.62
2023-06-15T20:40:26.815Z,39.21
2023-06-15T20:42:55.121Z,39.03
2023-06-15T20:45:24.843Z,39.62
2023-06-15T20:47:52.839Z,39.48
2023-06-15T20:50:23.719Z,39.84
2023-06-15T20:52:52.124Z,39.66
2023-06-15T20:55:21.153Z,40.10
2023-06-15T20:57:49.141Z,40.17
2023-06-15T21:00:19.509Z,40.49
2023-06-15T21:02:47.604Z,40.72
2023-06-15T21:05:16.214Z,40.79
2023-06-15T21:07:44.098Z,40.87
2023-06-15T21:10:12.445Z,40.65
2023-06-15T21:12:40.444Z,41.27
2023-06-15T21:15:08.346Z,41.17
2023-06-15T21:17:36.775Z,41.28
2023-06-15T21:20:05.000Z,41.62
2023-06-15T21:22:32.875Z,41.69
2023-06-15T21:25:00.866Z,41.87
2023-06-15T21:27:28.795Z,41.59
2023-06-15T21:29:57.388Z,41.49
2023-06-15T21:32:26.980Z,41.58
2023-06-15T21:34:55.273Z,41.85
2023-06-15T21:37:23.161Z,41.59
2023-06-15T21:39:51.101Z,41.68
2023-06-15T21:42:20.427Z,41.22
2023-06-15T21:44:49.695Z,41.55
2023-06-15T21:47:17.503Z,41.44
2023-06-15T21:49:45.475Z,41.00
2023-06-15T21:52:14.616Z,41.28
2023-06-15T21:54:43.266Z,41.26
2023-06-15T21:57:13.334Z,41.42
2023-06-15T21:59:41.089Z,41.17
2023-06-15T22:02:08.881Z,41.45
2023-06-15T22:04:36.782Z,41.04
2023-06-15T22:07:04.935Z,40.90
2023-06-15T22:09:34.506Z,40.92
2023-06-15T22:12:06.914Z,41.14
2023-06-15T22:14:35.627Z,41.15
2023-06-15T22:17:03.540Z,41.70
2023-06-15T22:19:31.713Z,41.71
2023-06-15T22:22:01.767Z,41.72
2023-06-15T22:24:29.769Z,41.29
2023-06-15T22:26:57.721Z,41.71
2023-06-15T22:29:25.439Z,41.80
2023-06-15T22:31:53.256Z,42.03
2023-06-15T22:34:21.248Z,42.43
2023-06-15T22:36:49.320Z,42.29
2023-06-15T22:39:17.072Z,42.20
2023-06-15T22:41:44.941Z,42.92
2023-06-15T22:44:15.576Z,42.94
2023-06-15T22:46:45.192Z,42.86
2023-06-15T22:49:13.880Z,43.37
2023-06-15T22:51:45.465Z,43.45
2023-06-15T22:54:13.306Z,43.58
2023-06-15T22:56:42.272Z,43.57
2023-06-15T22:59:09.960Z,42.88
2023-06-15T23:01:37.654Z,43.43
2023-06-15T23:04:05.666Z,42.74
2023-06-15T23:06:43.187Z,43.15
2023-06-15T23:09:14.101Z,42.90
2023-06-15T23:11:41.864Z,43.05
2023-06-15T23:14:10.221Z,42.74
2023-06-15T23:16:38.116Z,42.84
2023-06-15T23:19:06.845Z,43.30
2023-06-15T23:21:35.451Z,43.36
2023-06-15T23:24:06.803Z,43.13
2023-06-15T23:26:37.873Z,43.50
2023-06-15T23:29:05.607Z,43.46
2023-06-15T23:31:33.579Z,42.99
2023-06-15T23:34:01.474Z,43.61
2023-06-15T23:36:29.166Z,43.44
2023-06-15T23:38:57.193Z,43.68
2023-06-15T23:41:24.838Z,44.32
2023-06-15T23:43:52.903Z,43.99
2023-06-15T23:46:20.839Z,44.71
2023-06-15T23:48:48.602Z,44.46
2023-06-15T23:51:16.339Z,44.71
2023-06-15T23:53:44.092Z,45.49
2023-06-15T23:56:12.502Z,45.69
2023-06-15T23:58:40.249Z,45.30
